LIBN/LCC METAR and TAF weather

Enter ICAO airport designator
Station Type Date Time Source
LIBN METAR 2022/11/30 09:55 UTC NOAA

LIBN 300955Z 06006KT 5000 -RA SCT025 BKN035 12/10 Q1008


Station Type Date Time Source
LIBN Decoded METAR 2022/11/30 09:55 UTC NOAA

Lecce, Italy (LIBN) 40-14N 018-09E 61M
Nov 30, 2022 - 04:55 AM EST / 2022.11.30 0955 UTC
Wind: from the ENE (060 degrees) at 7 MPH (6 KT):0
Visibility: 3 mile(s):0
Sky conditions: mostly cloudy
Weather: light rain
Temperature: 53 F (12 C)
Dew Point: 50 F (10 C)
Relative Humidity: 87%
Pressure (altimeter): 29.77 in. Hg (1008 hPa)
ob: LIBN 300955Z 06006KT 5000 -RA SCT025 BKN035 12/10 Q1008
cycle: 10

Station Type Date Time Source
LIBN TAF 2022/09/13 09:27 UTC NOAA

TAF TAF LIBN 130800Z 1309/1321 35013KT 9999 FEW030
TEMPO 1309/1311 SCT030

Example: see airport list